createdAt,value
2019-02-10T00:01:58.382Z,79.44
2019-02-10T00:04:25.234Z,79.56
2019-02-10T00:06:52.066Z,80.38
2019-02-10T00:09:18.917Z,81.66
2019-02-10T00:11:45.758Z,79.13
2019-02-10T00:14:12.622Z,77.93
2019-02-10T00:16:39.452Z,79.03
2019-02-10T00:19:06.302Z,79.64
2019-02-10T00:21:33.135Z,79.62
2019-02-10T00:24:00.118Z,79.80
2019-02-10T00:26:26.941Z,79.67
2019-02-10T00:28:53.798Z,79.36
2019-02-10T00:31:20.628Z,79.42
2019-02-10T00:33:47.470Z,79.55
2019-02-10T00:36:14.300Z,79.68
2019-02-10T00:38:41.178Z,80.52
2019-02-10T00:41:08.029Z,80.72
2019-02-10T00:43:34.885Z,81.12
2019-02-10T00:46:01.710Z,80.58
2019-02-10T00:48:28.550Z,81.24
2019-02-10T00:50:55.409Z,82.05
2019-02-10T00:53:22.237Z,82.46
2019-02-10T00:55:49.096Z,81.85
2019-02-10T00:58:15.994Z,81.42
2019-02-10T01:00:42.882Z,80.74
2019-02-10T01:03:09.733Z,81.48
2019-02-10T01:05:36.586Z,80.52
2019-02-10T01:08:03.426Z,80.12
2019-02-10T01:10:30.268Z,79.25
2019-02-10T01:12:57.137Z,80.95
2019-02-10T01:15:24.002Z,80.75
2019-02-10T01:17:50.834Z,80.60
2019-02-10T01:20:17.681Z,79.97
2019-02-10T01:22:44.533Z,79.99
2019-02-10T01:25:11.390Z,81.37
2019-02-10T01:27:38.217Z,81.38
2019-02-10T01:30:06.594Z,80.86
2019-02-10T01:32:33.438Z,81.62
2019-02-10T01:35:00.354Z,81.64
2019-02-10T01:37:27.117Z,81.62
2019-02-10T01:39:54.328Z,81.59
2019-02-10T01:42:20.836Z,81.97
2019-02-10T01:44:47.698Z,81.56
2019-02-10T01:47:14.533Z,81.93
2019-02-10T01:49:41.379Z,79.94
2019-02-10T01:52:08.210Z,81.13
2019-02-10T01:54:35.085Z,81.91
2019-02-10T01:57:01.922Z,81.98
2019-02-10T01:59:28.774Z,82.00
2019-02-10T02:01:55.602Z,79.54
2019-02-10T02:04:22.456Z,81.18
2019-02-10T02:06:57.535Z,81.02
2019-02-10T02:09:16.145Z,79.90
2019-02-10T02:11:42.974Z,80.87
2019-02-10T02:14:09.800Z,81.21
2019-02-10T02:16:36.650Z,82.52
2019-02-10T02:19:03.474Z,81.79
2019-02-10T02:21:30.335Z,82.58
2019-02-10T02:23:57.186Z,83.05
2019-02-10T02:26:24.047Z,81.38
2019-02-10T02:28:50.875Z,82.16
2019-02-10T02:31:17.729Z,82.69
2019-02-10T02:33:44.569Z,81.39
2019-02-10T02:36:11.418Z,82.93
2019-02-10T02:38:38.263Z,83.55
2019-02-10T02:41:05.119Z,84.91
2019-02-10T02:43:31.946Z,84.89
2019-02-10T02:45:58.805Z,85.77
2019-02-10T02:48:25.635Z,85.47
2019-02-10T02:50:52.490Z,85.62
2019-02-10T02:53:19.325Z,85.96
2019-02-10T02:55:46.170Z,86.07
2019-02-10T02:58:13.006Z,86.06
2019-02-10T03:00:39.878Z,85.76
2019-02-10T03:03:06.721Z,85.64
2019-02-10T03:05:33.572Z,85.01
2019-02-10T03:08:00.413Z,85.65
2019-02-10T03:10:27.266Z,84.73
2019-02-10T03:12:54.120Z,85.12
2019-02-10T03:15:20.965Z,85.81
2019-02-10T03:17:47.795Z,86.46
2019-02-10T03:20:14.648Z,86.69
2019-02-10T03:22:41.482Z,86.54
2019-02-10T03:25:08.348Z,86.86
2019-02-10T03:27:35.177Z,86.59
2019-02-10T03:30:02.044Z,85.80
2019-02-10T03:32:28.892Z,86.06
2019-02-10T03:34:55.727Z,87.05
2019-02-10T03:37:27.264Z,86.87
2019-02-10T03:39:49.406Z,85.55
2019-02-10T03:42:16.258Z,84.86
2019-02-10T03:44:43.079Z,83.69
2019-02-10T03:47:09.957Z,83.62
2019-02-10T03:49:36.783Z,82.88
2019-02-10T03:52:03.657Z,85.22
2019-02-10T03:54:30.490Z,86.13
2019-02-10T03:56:57.388Z,86.47
2019-02-10T03:59:24.215Z,86.75
2019-02-10T04:01:51.082Z,86.93
2019-02-10T04:04:17.927Z,86.87
2019-02-10T04:06:44.779Z,86.87
2019-02-10T04:09:11.614Z,86.33
2019-02-10T04:11:38.462Z,84.35
2019-02-10T04:14:05.318Z,86.03
2019-02-10T04:16:32.135Z,85.76
2019-02-10T04:18:58.957Z,84.75
2019-02-10T04:21:25.817Z,85.61
2019-02-10T04:23:52.655Z,86.62
2019-02-10T04:26:19.518Z,86.39
2019-02-10T04:28:46.354Z,85.57
2019-02-10T04:31:13.218Z,83.50
2019-02-10T04:33:40.043Z,85.79
2019-02-10T04:36:06.898Z,87.58
2019-02-10T04:38:33.713Z,85.91
2019-02-10T04:41:00.571Z,87.19
2019-02-10T04:43:27.411Z,86.49
2019-02-10T04:45:54.262Z,87.14
2019-02-10T04:48:21.093Z,87.31
2019-02-10T04:50:47.926Z,85.24
2019-02-10T04:53:14.786Z,86.85
2019-02-10T04:55:41.621Z,86.55
2019-02-10T04:58:08.642Z,85.78
2019-02-10T05:00:35.495Z,88.17
2019-02-10T05:03:02.342Z,88.59
2019-02-10T05:05:29.178Z,89.41
2019-02-10T05:07:56.030Z,85.73
2019-02-10T05:10:22.941Z,86.86
2019-02-10T05:12:49.781Z,85.00
2019-02-10T05:15:16.626Z,84.31
2019-02-10T05:17:43.503Z,83.48
2019-02-10T05:20:10.325Z,85.38
2019-02-10T05:22:37.188Z,86.56
2019-02-10T05:25:04.329Z,86.68
2019-02-10T05:27:31.188Z,86.64
2019-02-10T05:29:58.020Z,84.41
2019-02-10T05:32:24.871Z,83.55
2019-02-10T05:34:51.709Z,85.30
2019-02-10T05:37:18.561Z,83.23
2019-02-10T05:39:45.401Z,83.70
2019-02-10T05:42:12.254Z,82.50
2019-02-10T05:44:39.090Z,82.80
2019-02-10T05:47:05.945Z,83.62
2019-02-10T05:49:32.785Z,82.72
2019-02-10T05:51:59.654Z,82.78
2019-02-10T05:54:26.481Z,82.83
2019-02-10T05:56:53.330Z,82.83
2019-02-10T05:59:20.176Z,83.80
2019-02-10T06:01:58.630Z,83.46
2019-02-10T06:04:25.629Z,83.58
2019-02-10T06:06:53.572Z,83.94
2019-02-10T06:09:20.432Z,83.77
2019-02-10T06:11:47.286Z,83.92
2019-02-10T06:14:14.142Z,83.64
2019-02-10T06:16:40.969Z,83.17
2019-02-10T06:19:07.832Z,83.14
2019-02-10T06:21:34.723Z,83.37
2019-02-10T06:24:01.581Z,83.52
2019-02-10T06:26:28.429Z,82.82
2019-02-10T06:28:55.282Z,83.01
2019-02-10T06:31:22.106Z,82.39
2019-02-10T06:33:48.961Z,82.81
2019-02-10T06:36:16.813Z,81.78
2019-02-10T06:38:42.658Z,82.21
2019-02-10T06:41:09.666Z,81.07
2019-02-10T06:43:36.527Z,81.86
2019-02-10T06:46:03.382Z,79.08
2019-02-10T06:48:30.229Z,80.16
2019-02-10T06:50:57.062Z,79.50
2019-02-10T06:53:23.910Z,78.46
2019-02-10T06:55:50.742Z,77.37
2019-02-10T06:58:17.754Z,76.81
2019-02-10T07:00:52.578Z,76.36
2019-02-10T07:03:40.091Z,74.57
2019-02-10T07:06:07.194Z,74.17
2019-02-10T07:08:34.030Z,73.84
2019-02-10T07:11:00.910Z,72.34
2019-02-10T07:13:31.381Z,71.56
2019-02-10T07:16:09.787Z,70.03
2019-02-10T07:19:05.006Z,70.77
2019-02-10T07:21:35.306Z,70.31
2019-02-10T07:24:29.783Z,68.76
2019-02-10T07:27:00.326Z,68.69
2019-02-10T07:29:43.637Z,68.91
2019-02-10T07:32:18.194Z,68.40
2019-02-10T07:35:04.838Z,67.95
2019-02-10T07:37:47.019Z,68.00
2019-02-10T07:40:39.261Z,67.77
2019-02-10T07:43:30.865Z,67.82
2019-02-10T07:46:24.255Z,66.88
2019-02-10T07:49:12.569Z,67.79
2019-02-10T07:51:51.707Z,67.53
2019-02-10T07:54:51.469Z,67.15
2019-02-10T07:57:57.534Z,67.44
2019-02-10T08:00:53.195Z,66.25
2019-02-10T08:03:35.674Z,65.90
2019-02-10T08:06:18.706Z,67.05
2019-02-10T08:09:15.698Z,65.73
2019-02-10T08:12:08.834Z,64.72
2019-02-10T08:14:56.591Z,65.32
2019-02-10T08:17:48.761Z,65.41
2019-02-10T08:20:25.089Z,65.87
2019-02-10T08:23:07.783Z,65.05
2019-02-10T08:26:03.545Z,64.57
2019-02-10T08:28:45.544Z,64.13
2019-02-10T08:31:44.974Z,64.73
2019-02-10T08:34:26.950Z,64.97
2019-02-10T08:37:17.730Z,64.47
2019-02-10T08:39:59.154Z,64.37
2019-02-10T08:42:41.943Z,63.40
2019-02-10T08:45:20.246Z,65.93
2019-02-10T08:48:12.399Z,66.75
2019-02-10T08:51:09.556Z,67.18
2019-02-10T08:53:38.398Z,67.92
2019-02-10T08:56:05.250Z,68.07
2019-02-10T08:58:32.075Z,68.84
2019-02-10T09:00:58.929Z,69.72
2019-02-10T09:03:25.746Z,70.14
2019-02-10T09:05:53.251Z,67.61
2019-02-10T09:08:20.166Z,67.23
2019-02-10T09:10:47.000Z,68.21
2019-02-10T09:13:13.941Z,68.83
2019-02-10T09:15:40.888Z,67.71
2019-02-10T09:18:07.707Z,66.47
2019-02-10T09:20:34.557Z,64.50
2019-02-10T09:23:01.389Z,65.25
2019-02-10T09:25:28.225Z,64.78
2019-02-10T09:27:55.114Z,63.90
2019-02-10T09:30:21.942Z,63.00
2019-02-10T09:32:48.793Z,62.61
2019-02-10T09:35:15.710Z,62.36
2019-02-10T09:37:42.579Z,62.23
2019-02-10T09:40:10.007Z,62.14
2019-02-10T09:42:36.853Z,62.30
2019-02-10T09:45:04.344Z,62.00
2019-02-10T09:47:31.286Z,61.30
2019-02-10T09:49:58.118Z,60.30
2019-02-10T09:52:25.007Z,61.24
2019-02-10T09:54:51.845Z,61.30
2019-02-10T09:57:18.685Z,61.25
2019-02-10T09:59:45.510Z,60.38
2019-02-10T10:02:12.362Z,60.57
2019-02-10T10:04:39.190Z,60.61
2019-02-10T10:07:06.066Z,60.37
2019-02-10T10:09:32.898Z,60.58
2019-02-10T10:11:59.870Z,61.26
2019-02-10T10:14:30.906Z,60.68
2019-02-10T10:16:53.513Z,61.42
2019-02-10T10:19:20.369Z,61.50
2019-02-10T10:21:47.306Z,62.56
2019-02-10T10:24:14.158Z,62.26
2019-02-10T10:26:41.051Z,61.74
2019-02-10T10:29:07.885Z,61.76
2019-02-10T10:31:34.733Z,63.19
2019-02-10T10:34:01.597Z,63.11
2019-02-10T10:36:28.445Z,64.87
2019-02-10T10:38:55.327Z,64.37
2019-02-10T10:41:23.198Z,66.04
2019-02-10T10:43:50.084Z,66.17
2019-02-10T10:46:16.914Z,66.42
2019-02-10T10:48:43.750Z,66.44
2019-02-10T10:51:10.590Z,67.19
2019-02-10T10:53:37.441Z,67.50
2019-02-10T10:56:04.262Z,68.75
2019-02-10T10:58:31.155Z,69.72
2019-02-10T11:00:58.017Z,68.98
2019-02-10T11:03:24.870Z,70.11
2019-02-10T11:05:51.686Z,70.31
2019-02-10T11:08:18.535Z,70.75
2019-02-10T11:10:45.442Z,72.00
2019-02-10T11:13:12.306Z,71.48
2019-02-10T11:15:39.129Z,72.54
2019-02-10T11:18:05.970Z,72.64
2019-02-10T11:20:32.795Z,72.34
2019-02-10T11:22:59.630Z,73.30
2019-02-10T11:25:26.449Z,73.14
2019-02-10T11:27:53.400Z,73.11
2019-02-10T11:30:20.230Z,72.23
2019-02-10T11:32:47.067Z,72.96
2019-02-10T11:35:14.347Z,74.56
2019-02-10T11:37:41.197Z,74.44
2019-02-10T11:40:08.274Z,76.25
2019-02-10T11:42:35.094Z,75.59
2019-02-10T11:45:01.997Z,77.93
2019-02-10T11:47:28.834Z,77.92
2019-02-10T11:49:55.691Z,78.10
2019-02-10T11:52:22.582Z,78.69
2019-02-10T11:54:49.590Z,78.23
2019-02-10T11:57:16.470Z,79.06
2019-02-10T11:59:43.354Z,78.99
2019-02-10T12:02:10.230Z,80.34
2019-02-10T12:04:37.110Z,81.59
2019-02-10T12:07:03.957Z,82.82
2019-02-10T12:09:30.953Z,82.16
2019-02-10T12:11:57.814Z,83.68
2019-02-10T12:14:24.692Z,85.37
2019-02-10T12:16:51.570Z,86.84
2019-02-10T12:19:18.421Z,87.06
2019-02-10T12:21:45.250Z,87.77
2019-02-10T12:24:12.110Z,89.04
2019-02-10T12:26:38.987Z,89.55
2019-02-10T12:29:05.831Z,90.42
2019-02-10T12:31:32.676Z,91.10
2019-02-10T12:33:59.547Z,91.66
2019-02-10T12:36:26.363Z,91.34
2019-02-10T12:38:53.328Z,92.42
2019-02-10T12:41:21.102Z,92.79
2019-02-10T12:43:47.950Z,91.60
2019-02-10T12:46:14.821Z,90.96
2019-02-10T12:48:41.689Z,89.67
2019-02-10T12:51:08.527Z,91.45
2019-02-10T12:53:35.338Z,90.93
2019-02-10T12:56:02.198Z,90.96
2019-02-10T12:58:29.057Z,90.71
2019-02-10T13:00:55.918Z,90.77
2019-02-10T13:03:22.742Z,90.50
2019-02-10T13:05:49.612Z,90.05
2019-02-10T13:08:16.434Z,89.61
2019-02-10T13:10:43.283Z,90.02
2019-02-10T13:13:10.306Z,90.38
2019-02-10T13:15:37.147Z,89.20
2019-02-10T13:18:03.970Z,89.48
2019-02-10T13:20:30.897Z,89.53
2019-02-10T13:22:57.765Z,89.71
2019-02-10T13:25:24.670Z,89.03
2019-02-10T13:27:51.518Z,88.19
2019-02-10T13:30:18.370Z,88.71
2019-02-10T13:32:45.310Z,88.50
2019-02-10T13:35:12.334Z,89.84
2019-02-10T13:37:39.218Z,91.29
2019-02-10T13:40:16.418Z,91.43
2019-02-10T13:42:36.370Z,90.63
2019-02-10T13:45:04.404Z,91.22
2019-02-10T13:47:31.234Z,91.97
2019-02-10T13:49:58.094Z,91.68
2019-02-10T13:52:24.975Z,92.71
2019-02-10T13:54:51.856Z,92.43
2019-02-10T13:57:18.698Z,90.97
2019-02-10T13:59:45.584Z,89.75
2019-02-10T14:02:12.411Z,91.07
2019-02-10T14:04:39.262Z,91.54
2019-02-10T14:07:06.085Z,90.62
2019-02-10T14:09:33.050Z,90.84
2019-02-10T14:11:59.964Z,89.96
2019-02-10T14:14:26.795Z,89.16
2019-02-10T14:16:53.626Z,89.91
2019-02-10T14:19:20.514Z,90.15
2019-02-10T14:21:47.366Z,90.92
2019-02-10T14:24:14.214Z,90.87
2019-02-10T14:26:41.082Z,93.22
2019-02-10T14:29:08.027Z,99.41
2019-02-10T14:31:34.896Z,100.00
2019-02-10T14:34:03.393Z,98.75
2019-02-10T14:36:28.724Z,95.41
2019-02-10T14:38:55.670Z,93.94
2019-02-10T14:41:23.131Z,91.43
2019-02-10T14:43:49.966Z,90.30
2019-02-10T14:46:16.838Z,90.89
2019-02-10T14:48:43.712Z,91.39
2019-02-10T14:51:10.558Z,90.53
2019-02-10T14:53:37.394Z,91.03
2019-02-10T14:56:04.254Z,92.28
2019-02-10T14:58:31.166Z,92.25
2019-02-10T15:00:58.015Z,91.62
2019-02-10T15:03:24.854Z,91.85
2019-02-10T15:05:51.702Z,92.25
2019-02-10T15:08:18.546Z,91.76
2019-02-10T15:10:45.403Z,91.43
2019-02-10T15:13:12.238Z,91.42
2019-02-10T15:15:39.094Z,92.07
2019-02-10T15:18:05.961Z,92.10
2019-02-10T15:20:32.794Z,91.42
2019-02-10T15:22:59.628Z,90.93
2019-02-10T15:25:28.096Z,91.81
2019-02-10T15:27:53.340Z,92.27
2019-02-10T15:30:20.194Z,92.99
2019-02-10T15:32:47.035Z,92.42
2019-02-10T15:35:13.921Z,93.84
2019-02-10T15:37:40.868Z,93.63
2019-02-10T15:40:07.726Z,95.17
2019-02-10T15:42:34.591Z,94.05
2019-02-10T15:45:01.433Z,93.57
2019-02-10T15:47:28.309Z,92.87
2019-02-10T15:49:55.166Z,92.95
2019-02-10T15:52:22.031Z,94.25
2019-02-10T15:54:48.875Z,92.90
2019-02-10T15:57:15.743Z,93.62
2019-02-10T15:59:42.590Z,93.87
2019-02-10T16:02:09.450Z,92.92
2019-02-10T16:04:36.290Z,92.74
2019-02-10T16:07:03.155Z,92.30
2019-02-10T16:09:30.090Z,93.06
2019-02-10T16:11:56.998Z,92.62
2019-02-10T16:14:23.946Z,93.27
2019-02-10T16:16:50.814Z,94.88
2019-02-10T16:19:17.654Z,94.53
2019-02-10T16:21:44.518Z,93.76
2019-02-10T16:24:11.365Z,93.70
2019-02-10T16:26:38.217Z,93.27
2019-02-10T16:29:05.779Z,91.52
2019-02-10T16:31:32.714Z,92.08
2019-02-10T16:33:59.739Z,91.84
2019-02-10T16:36:26.578Z,90.58
2019-02-10T16:38:53.480Z,90.17
2019-02-10T16:41:20.383Z,89.27
2019-02-10T16:43:47.266Z,89.52
2019-02-10T16:46:14.204Z,89.87
2019-02-10T16:48:41.085Z,89.45
2019-02-10T16:51:07.981Z,89.83
2019-02-10T16:53:34.859Z,89.17
2019-02-10T16:56:01.726Z,89.29
2019-02-10T16:58:28.566Z,89.96
2019-02-10T17:00:55.468Z,88.96
2019-02-10T17:03:22.321Z,89.13
2019-02-10T17:05:49.269Z,89.91
2019-02-10T17:08:16.595Z,90.41
2019-02-10T17:10:43.520Z,91.66
2019-02-10T17:13:10.391Z,91.67
2019-02-10T17:15:37.294Z,92.05
2019-02-10T17:18:04.226Z,91.24
2019-02-10T17:20:31.107Z,88.92
2019-02-10T17:22:57.995Z,89.08
2019-02-10T17:25:24.886Z,87.88
2019-02-10T17:27:51.781Z,87.94
2019-02-10T17:30:18.683Z,86.97
2019-02-10T17:32:45.560Z,86.72
2019-02-10T17:35:12.481Z,86.99
2019-02-10T17:37:39.350Z,85.30
2019-02-10T17:40:09.525Z,85.21
2019-02-10T17:42:36.391Z,84.95
2019-02-10T17:45:03.410Z,84.56
2019-02-10T17:47:30.297Z,84.64
2019-02-10T17:49:57.246Z,83.91
2019-02-10T17:52:31.719Z,81.98
2019-02-10T17:54:50.998Z,82.69
2019-02-10T17:57:17.894Z,83.26
2019-02-10T17:59:44.751Z,82.13
2019-02-10T18:02:11.625Z,83.21
2019-02-10T18:04:38.469Z,83.84
2019-02-10T18:07:05.345Z,82.62
2019-02-10T18:09:32.650Z,84.21
2019-02-10T18:11:59.514Z,83.57
2019-02-10T18:14:39.603Z,82.54
2019-02-10T18:17:26.073Z,82.46
2019-02-10T18:20:00.029Z,82.22
2019-02-10T18:22:32.614Z,81.86
2019-02-10T18:25:10.444Z,82.54
2019-02-10T18:27:51.107Z,82.83
2019-02-10T18:30:39.565Z,81.87
2019-02-10T18:33:12.106Z,82.58
2019-02-10T18:35:44.722Z,82.61
2019-02-10T18:38:33.138Z,83.43
2019-02-10T18:41:13.674Z,82.37
2019-02-10T18:43:55.378Z,83.29
2019-02-10T18:46:32.263Z,83.99
2019-02-10T18:49:08.514Z,83.30
2019-02-10T18:51:49.086Z,82.56
2019-02-10T18:54:35.622Z,82.33
2019-02-10T18:57:14.534Z,82.94
2019-02-10T18:59:52.835Z,82.80
2019-02-10T19:02:28.989Z,83.08
2019-02-10T19:05:04.106Z,82.98
2019-02-10T19:07:36.834Z,83.47
2019-02-10T19:10:18.373Z,82.77
2019-02-10T19:12:51.094Z,82.82
2019-02-10T19:15:34.911Z,82.34
2019-02-10T19:18:07.470Z,82.49
2019-02-10T19:20:46.285Z,81.23
2019-02-10T19:23:29.594Z,81.87
2019-02-10T19:26:13.050Z,81.43
2019-02-10T19:29:01.707Z,81.32
2019-02-10T19:31:39.878Z,82.14
2019-02-10T19:34:13.798Z,82.23
2019-02-10T19:37:03.226Z,81.68
2019-02-10T19:39:43.158Z,82.37
2019-02-10T19:42:15.747Z,82.75
2019-02-10T19:44:54.742Z,83.15
2019-02-10T19:47:27.360Z,84.57
2019-02-10T19:49:59.990Z,86.28
2019-02-10T19:52:42.830Z,86.93
2019-02-10T19:55:32.140Z,89.27
2019-02-10T19:58:10.967Z,90.06
2019-02-10T20:00:53.700Z,91.60
2019-02-10T20:03:43.158Z,92.09
2019-02-10T20:06:18.466Z,92.71
2019-02-10T20:08:52.985Z,93.39
2019-02-10T20:11:25.484Z,93.66
2019-02-10T20:14:01.426Z,94.46
2019-02-10T20:16:38.733Z,94.48
2019-02-10T20:19:11.507Z,94.43
2019-02-10T20:21:59.845Z,94.10
2019-02-10T20:24:49.903Z,94.31
2019-02-10T20:27:37.726Z,94.50
2019-02-10T20:30:11.122Z,94.24
2019-02-10T20:32:53.630Z,94.33
2019-02-10T20:35:40.066Z,94.19
2019-02-10T20:38:31.471Z,94.56
2019-02-10T20:41:07.066Z,94.92
2019-02-10T20:43:38.375Z,94.74
2019-02-10T20:46:27.749Z,94.84
2019-02-10T20:49:00.197Z,93.97
2019-02-10T20:51:47.534Z,92.30
2019-02-10T20:54:22.011Z,90.35
2019-02-10T20:57:00.050Z,90.71
2019-02-10T20:59:41.032Z,90.57
2019-02-10T21:02:28.330Z,89.95
2019-02-10T21:05:02.063Z,88.70
2019-02-10T21:07:51.327Z,89.16
2019-02-10T21:10:32.911Z,89.02
2019-02-10T21:13:07.345Z,89.09
2019-02-10T21:15:52.591Z,88.80
2019-02-10T21:18:29.693Z,88.80
2019-02-10T21:21:02.346Z,88.80
2019-02-10T21:23:49.703Z,88.38
2019-02-10T21:26:25.527Z,88.30
2019-02-10T21:29:14.797Z,88.37
2019-02-10T21:32:02.281Z,87.71
2019-02-10T21:34:37.413Z,87.93
2019-02-10T21:37:10.546Z,87.15
2019-02-10T21:40:00.867Z,86.94
2019-02-10T21:42:34.771Z,86.53
2019-02-10T21:45:12.138Z,86.08
2019-02-10T21:47:42.790Z,84.71
2019-02-10T21:50:09.638Z,84.91
2019-02-10T21:52:36.519Z,85.36
2019-02-10T21:55:03.420Z,85.08
2019-02-10T21:57:30.278Z,85.41
2019-02-10T21:59:57.139Z,85.58
2019-02-10T22:02:23.970Z,86.49
2019-02-10T22:04:50.826Z,86.60
2019-02-10T22:07:17.671Z,86.07
2019-02-10T22:09:44.546Z,86.15
2019-02-10T22:12:11.389Z,85.73
2019-02-10T22:14:38.245Z,86.50
2019-02-10T22:17:05.105Z,87.01
2019-02-10T22:19:31.993Z,86.56
2019-02-10T22:21:58.838Z,87.95
2019-02-10T22:24:25.711Z,88.32
2019-02-10T22:26:52.561Z,89.88
2019-02-10T22:29:19.431Z,90.88
2019-02-10T22:31:46.266Z,91.55
2019-02-10T22:34:13.130Z,91.83
2019-02-10T22:36:39.973Z,91.58
2019-02-10T22:39:06.826Z,92.43
2019-02-10T22:41:33.662Z,92.09
2019-02-10T22:44:00.538Z,92.06
2019-02-10T22:46:27.385Z,90.83
2019-02-10T22:48:54.254Z,91.93
2019-02-10T22:51:21.097Z,91.09
2019-02-10T22:53:47.978Z,91.65
2019-02-10T22:56:14.819Z,91.30
2019-02-10T22:58:41.684Z,91.32
2019-02-10T23:01:08.519Z,91.13
2019-02-10T23:03:35.377Z,90.50
2019-02-10T23:06:02.282Z,88.83
2019-02-10T23:08:29.142Z,88.80
2019-02-10T23:10:56.014Z,88.62
2019-02-10T23:13:22.854Z,87.29
2019-02-10T23:15:49.717Z,88.53
2019-02-10T23:18:16.638Z,89.24
2019-02-10T23:20:43.495Z,88.65
2019-02-10T23:23:10.343Z,87.54
2019-02-10T23:25:37.210Z,88.13
2019-02-10T23:28:04.053Z,86.93
2019-02-10T23:30:30.915Z,87.49
2019-02-10T23:32:57.762Z,87.28
2019-02-10T23:35:24.622Z,86.95
2019-02-10T23:37:51.441Z,86.83
2019-02-10T23:40:18.341Z,86.42
2019-02-10T23:42:45.266Z,85.86
2019-02-10T23:45:12.125Z,85.72
2019-02-10T23:47:38.994Z,86.03
2019-02-10T23:50:05.886Z,85.92
2019-02-10T23:52:32.735Z,84.90
2019-02-10T23:54:59.589Z,85.35
2019-02-10T23:57:26.430Z,86.91
2019-02-10T23:59:53.297Z,87.32
